x

San Clemente Basin - 27nm Se Of San Clemente Is, Ca (46086) Wave Buoy

5:50am - Fri 24th Nov 2017 All times are PST. -8 hours from GMT.

  • Sig Wave height 3.6ft
  • Swell Direction
  • Peak Period 14s
  • Average Period 7s
  • Wind
    7mph, 9mph gusts
  • Sea Temp 66°f
  • Air Temp 65°f
  • Sea Pressure 1012.4mb
  • San Clemente Basin - 27nm Se Of San Clemente Is, Ca
  • San Clemente Basin - 27nm Se Of San Clemente Is, Ca

More Historic Weather Station data

Upgrade to MSW Pro to gain access to the past 30 days of data for over 8000 Wavebouys and Weather Stations around the globe.

Join

Comparision Forecast

View Surf forecast
   
Fri 11/24 5:50am 3.5ft 14s 7s 7 9 mph 1012.4mb 66f 65f
4:50am 4ft 12s 8s 4 7 mph 1012.1mb 66f 65f
3:50am 4ft 14s 8s 7 9 mph 1012.4mb 66f 65f
2:50am 3.5ft 11s 7s 9 11 mph 1012.7mb 66f 65f
1:50am 3.5ft 13s 7s 9 11 mph 1012.8mb 66f 66f
12:50am 3.5ft 14s  -  7 7 mph 1012.8mb 66f 66f
Thu 11/23 11:50pm 3.5ft 14s 7s 4 4 mph 1013.2mb 66f 67f
10:50pm 3.5ft 15s 7s  -  2 mph 1014mb 66f 67f
9:50pm 3ft 14s 7s 2 4 mph 1014.1mb 66f 67f
8:50pm 3.5ft 13s 7s 2 2 mph 1014mb 66f 67f
7:50pm 3ft 15s 7s 2 2 mph 1013.5mb 66f 67f
6:50pm 3.5ft 15s 7s 11 11 mph 1013.2mb 66f 68f
5:50pm 3.5ft 14s 7s 7 7 mph 1012.9mb 66f 68f
4:50pm 3.5ft 14s 7s 7 9 mph 1012.8mb 67f 68f
3:50pm 3ft 14s 7s 7 9 mph 1012.9mb 67f 69f
2:50pm 2.5ft 14s 7s 4 4 mph 1013.1mb 68f 70f
1:50pm 3ft 15s 8s 4 4 mph 1013.4mb 68f 70f
12:50pm 2.5ft 13s 7s 2 4 mph 1014.2mb 67f 69f
11:50am 2.5ft 11s 7s 4 7 mph 1015mb 67f 68f
10:50am 2.5ft 14s 8s 4 4 mph 1015.8mb 67f 67f
9:50am 2.5ft 14s 8s 4 7 mph 1016.3mb 66f 67f
8:50am 2.5ft 11s 8s  -  2 mph 1016mb 66f 69f
7:50am 2.5ft 10s 7s  -  2 mph 1016.1mb 65f 67f
6:50am 2.5ft 10s 7s 2 4 mph 1016mb 65f 67f
5:50am 2.5ft 14s 7s 4 4 mph 1015.6mb 65f 67f
4:50am 2.5ft 10s 7s 4 4 mph 1015.3mb 65f 67f
3:50am 2.5ft 10s 8s 7 7 mph 1015.5mb 65f 68f
2:50am 2.5ft 10s 7s 4 7 mph 1015.7mb 65f 68f
1:50am 2.5ft 14s 7s 7 7 mph 1015.8mb 65f 70f
12:50am 2.5ft 14s 8s 9 9 mph 1015.8mb 65f 69f
Wed 11/22 11:50pm 2.5ft 14s 7s 7 7 mph 1016.1mb 65f 68f
10:50pm 2.5ft 11s 7s 7 7 mph 1016.5mb 65f 69f
9:50pm 2.5ft 14s 7s 7 9 mph 1016.5mb 65f 69f
8:50pm 2.5ft 14s 7s 7 9 mph 1016.4mb 65f 68f
7:50pm 2.5ft 14s 7s 4 4 mph 1016.2mb 65f 68f
6:50pm 2.5ft 14s 7s 4 4 mph 1015.9mb 66f 68f
5:50pm 2.5ft 11s 7s 7 9 mph 1015.4mb 66f 68f
4:50pm 2.5ft 14s 7s 7 9 mph 1015mb 66f 68f
3:50pm 2.5ft 14s 8s 9 9 mph 1015.1mb 66f 69f
2:50pm 2.5ft 14s 8s 11 11 mph 1014.9mb 67f 69f
1:50pm 2.5ft 15s 8s 7 9 mph 1015.2mb 67f 69f
12:50pm 2.5ft 13s 8s 9 11 mph 1015.6mb 67f 68f
11:50am 2ft 14s 8s 9 11 mph 1016.3mb 66f 68f
10:50am 2.5ft 12s 8s 7 9 mph 1017.4mb 66f 67f
9:50am 2.5ft 11s 7s 7 9 mph 1017.8mb 66f 67f
8:50am 2.5ft 11s 7s 4 7 mph 1017.9mb 66f 66f
7:50am 2.5ft 11s 7s 2 4 mph 1017.6mb 65f 67f
6:50am 2.5ft 11s 7s 2 4 mph 1016.8mb 65f 67f
5:50am 2.5ft 12s 7s 2 4 mph 1016.2mb 66f 66f
4:50am 2.5ft 13s 7s 7 7 mph 1016mb 66f 66f
3:50am 2.5ft 12s 8s 7 7 mph 1016.3mb 66f 66f
2:50am 2.5ft 12s 8s 7 9 mph 1016.8mb 66f 66f
1:50am 2.5ft 12s 8s 9 11 mph 1016.7mb 65f 66f
12:50am 2.5ft 13s 8s 7 9 mph 1016.7mb 65f 66f
Tue 11/21 11:50pm 2ft 12s 8s 2 4 mph 1016.9mb 65f 67f
10:50pm 2.5ft 12s 8s 2 2 mph 1017.1mb 65f 67f
9:50pm 2.5ft 13s 8s 2 2 mph 1017.2mb 65f 67f
8:50pm 2.5ft 13s 8s 4 7 mph 1017.3mb 66f 67f
7:50pm 3ft 12s 8s 4 4 mph 1016.7mb 66f 67f
6:50pm 2.5ft 11s 8s 2 4 mph 1016.6mb 66f 67f
5:50pm 2.5ft 13s 7s 4 4 mph 1015.9mb 66f 67f
4:50pm 2.5ft 12s 7s 4 7 mph 1015.6mb 66f 67f
2:50pm 2.5ft 11s 7s 4 7 mph 1016.5mb 66f 67f
1:50pm 2.5ft 15s 7s 9 11 mph 1016.7mb 66f 66f
12:50pm 2.5ft 13s 8s 9 11 mph 1017mb 66f 66f
11:50am 2.5ft 12s 7s 9 11 mph 1017.6mb 66f 67f
10:50am 2.5ft 15s 8s 4 7 mph 1018.4mb 66f 66f
9:50am 2.5ft 12s 7s 4 4 mph 1018.7mb 65f 66f
8:50am 2.5ft 13s 7s 2 4 mph 1018.2mb 65f 66f
7:50am 2.5ft 13s 6s 7 9 mph 1017.4mb 65f 65f
6:50am 2.5ft 13s 6s 7 9 mph 1016.8mb 65f 65f
5:50am 3ft 12s 6s 7 7 mph 1016.2mb 65f 65f
4:50am 3ft 12s 7s 4 7 mph 1016.2mb 65f 65f
3:50am 2.5ft 12s 7s 7 7 mph 1016.1mb 65f 65f
2:50am 3ft 13s 7s 7 7 mph 1016.3mb 65f 65f
1:50am 2.5ft 13s 6s 7 7 mph 1016.2mb 65f 65f
12:50am 2.5ft 13s 7s 7 7 mph 1016.2mb 65f 64f
Mon 11/20 11:50pm 3ft 13s 7s 2 2 mph 1016.5mb 65f 64f
10:50pm 2.5ft 13s 6s 4 7 mph 1016.7mb 65f 65f
9:50pm 3ft 13s 6s 2 2 mph 1016.5mb 65f 65f
8:50pm 3.5ft 14s 6s 4 4 mph 1016.5mb 65f 65f
7:50pm 3.5ft 15s 6s 4 4 mph 1016.4mb 65f 65f
6:50pm 3.5ft 13s 6s 4 7 mph 1016.1mb 65f 64f
5:50pm 3.5ft 15s 6s 2 4 mph 1015.9mb 65f 64f
4:50pm 3.5ft 14s 6s 4 4 mph 1015.8mb 66f 64f
3:50pm 3.5ft 14s 6s 7 7 mph 1015.9mb 66f 64f